createdAt,value
2022-11-04T00:02:48.176Z,15.08
2022-11-04T00:08:09.217Z,15.05
2022-11-04T00:13:11.459Z,15.06
2022-11-04T00:18:13.689Z,15.18
2022-11-04T00:23:34.686Z,15.09
2022-11-04T00:28:46.259Z,15.03
2022-11-04T00:33:50.011Z,14.92
2022-11-04T00:38:52.576Z,15.01
2022-11-04T00:44:01.965Z,14.94
2022-11-04T00:49:04.231Z,14.82
2022-11-04T00:54:06.747Z,14.79
2022-11-04T00:59:11.772Z,14.76
2022-11-04T01:04:16.883Z,14.76
2022-11-04T01:09:19.144Z,14.71
2022-11-04T01:14:22.579Z,14.61
2022-11-04T01:19:24.833Z,14.56
2022-11-04T01:24:27.431Z,14.59
2022-11-04T01:29:29.686Z,14.38
2022-11-04T01:34:32.167Z,14.40
2022-11-04T01:39:34.460Z,14.28
2022-11-04T01:44:42.420Z,14.29
2022-11-04T01:49:47.943Z,14.26
2022-11-04T01:54:55.873Z,14.19
2022-11-04T02:00:01.930Z,14.14
2022-11-04T02:05:05.317Z,14.12
2022-11-04T02:10:08.369Z,14.00
2022-11-04T02:15:11.589Z,13.92
2022-11-04T02:20:37.865Z,13.90
2022-11-04T02:26:17.935Z,13.74
2022-11-04T02:31:35.221Z,13.75
2022-11-04T02:36:55.662Z,13.75
2022-11-04T02:42:09.948Z,13.74
2022-11-04T02:47:21.089Z,13.50
2022-11-04T02:52:33.598Z,13.41
2022-11-04T02:57:39.753Z,13.26
2022-11-04T03:02:43.735Z,13.15
2022-11-04T03:07:48.667Z,13.30
2022-11-04T03:12:59.396Z,13.17
2022-11-04T03:18:18.757Z,13.30
2022-11-04T03:23:21.051Z,13.24
2022-11-04T03:29:05.475Z,13.20
2022-11-04T03:34:07.820Z,12.94
2022-11-04T03:39:10.738Z,13.06
2022-11-04T03:44:13.025Z,13.13
2022-11-04T03:49:15.941Z,12.84
2022-11-04T03:54:18.968Z,12.91
2022-11-04T03:59:59.919Z,13.03
2022-11-04T04:05:24.319Z,12.86
2022-11-04T04:10:41.074Z,12.85
2022-11-04T04:15:49.004Z,12.66
2022-11-04T04:20:55.340Z,12.80
2022-11-04T04:26:22.176Z,12.83
2022-11-04T04:31:46.205Z,12.86
2022-11-04T04:36:58.004Z,12.72
2022-11-04T04:42:18.697Z,12.71
2022-11-04T04:47:23.924Z,12.69
2022-11-04T04:52:29.267Z,12.72
2022-11-04T04:57:31.452Z,12.43
2022-11-04T05:02:33.846Z,12.52
2022-11-04T05:07:36.381Z,12.48
2022-11-04T05:12:58.583Z,12.40
2022-11-04T05:18:02.957Z,12.49
2022-11-04T05:23:05.308Z,12.36
2022-11-04T05:28:08.520Z,12.29
2022-11-04T05:33:11.427Z,12.29
2022-11-04T05:38:14.161Z,12.39
2022-11-04T05:43:16.460Z,12.52
2022-11-04T05:48:18.664Z,12.63
2022-11-04T05:53:21.228Z,12.61
2022-11-04T05:58:23.436Z,12.70
2022-11-04T06:03:25.909Z,12.80
2022-11-04T06:08:28.340Z,12.94
2022-11-04T06:13:30.594Z,12.69
2022-11-04T06:18:32.769Z,13.17
2022-11-04T06:23:35.103Z,13.25
2022-11-04T06:28:37.534Z,13.48
2022-11-04T06:33:39.952Z,13.60
2022-11-04T06:38:42.897Z,13.64
2022-11-04T06:43:45.523Z,13.88
2022-11-04T06:48:47.708Z,13.95
2022-11-04T06:53:50.304Z,14.14
2022-11-04T06:58:54.714Z,14.42
2022-11-04T07:03:58.954Z,14.64
2022-11-04T07:09:02.655Z,14.75
2022-11-04T07:14:04.916Z,15.02
2022-11-04T07:19:07.545Z,15.28
2022-11-04T07:24:09.826Z,15.27
2022-11-04T07:29:12.153Z,15.69
2022-11-04T07:34:14.524Z,15.72
2022-11-04T07:39:16.802Z,15.98
2022-11-04T07:44:19.453Z,16.27
2022-11-04T07:49:22.071Z,16.36
2022-11-04T07:54:24.298Z,16.46
2022-11-04T07:59:26.639Z,16.66
2022-11-04T08:04:28.957Z,16.73
2022-11-04T08:09:31.135Z,17.04
2022-11-04T08:14:33.489Z,17.07
2022-11-04T08:19:35.919Z,17.30
2022-11-04T08:24:38.257Z,17.38
2022-11-04T08:29:40.672Z,17.47
2022-11-04T08:34:42.895Z,17.69
2022-11-04T08:39:45.106Z,17.83
2022-11-04T08:44:51.045Z,17.97
2022-11-04T08:49:53.306Z,18.14
2022-11-04T08:54:57.512Z,18.43
2022-11-04T08:59:59.881Z,18.47
2022-11-04T09:05:02.318Z,18.46
2022-11-04T09:10:06.463Z,18.59
2022-11-04T09:15:09.337Z,18.88
2022-11-04T09:20:12.593Z,19.06
2022-11-04T09:25:14.861Z,19.15
2022-11-04T09:30:18.121Z,19.22
2022-11-04T09:35:20.684Z,19.35
2022-11-04T09:40:26.037Z,19.50
2022-11-04T09:45:31.858Z,19.59
2022-11-04T09:50:47.699Z,19.78
2022-11-04T09:56:15.662Z,19.89
2022-11-04T10:01:47.852Z,20.07
2022-11-04T10:07:26.883Z,20.22
2022-11-04T10:12:53.749Z,20.39
2022-11-04T10:18:33.173Z,20.54
2022-11-04T10:23:59.007Z,20.55
2022-11-04T10:29:09.919Z,20.69
2022-11-04T10:34:57.262Z,20.79
2022-11-04T10:40:18.519Z,21.03
2022-11-04T10:45:27.725Z,20.88
2022-11-04T10:50:55.992Z,20.93
2022-11-04T10:56:23.084Z,21.10
2022-11-04T11:01:31.305Z,21.26
2022-11-04T11:06:36.214Z,21.13
2022-11-04T11:11:45.872Z,21.61
2022-11-04T11:16:48.626Z,21.64
2022-11-04T11:21:53.501Z,21.58
2022-11-04T11:27:12.450Z,21.82
2022-11-04T11:32:33.754Z,21.92
2022-11-04T11:37:36.521Z,22.17
2022-11-04T11:42:42.879Z,22.22
2022-11-04T11:47:45.154Z,22.45
2022-11-04T11:52:49.395Z,22.62
2022-11-04T12:09:23.303Z,22.93
2022-11-04T12:14:53.632Z,23.15
2022-11-04T12:20:31.278Z,23.38
2022-11-04T12:25:36.859Z,23.59
2022-11-04T12:31:18.121Z,23.71
2022-11-04T12:36:44.198Z,23.72
2022-11-04T12:42:19.040Z,24.04
2022-11-04T12:47:37.241Z,24.09
2022-11-04T12:53:22.877Z,24.07
2022-11-04T12:58:45.697Z,24.47
2022-11-04T13:04:06.946Z,24.48
2022-11-04T13:09:15.517Z,24.74
2022-11-04T13:14:29.838Z,24.77
2022-11-04T13:19:38.520Z,25.03
2022-11-04T13:24:49.978Z,25.07
2022-11-04T13:30:01.457Z,25.19
2022-11-04T13:35:23.361Z,25.00
2022-11-04T13:40:32.517Z,25.46
2022-11-04T13:45:35.125Z,25.50
2022-11-04T13:50:42.043Z,25.29
2022-11-04T13:55:51.753Z,24.96
2022-11-04T14:01:12.453Z,24.79
2022-11-04T14:06:14.943Z,24.54
2022-11-04T14:11:17.227Z,24.44
2022-11-04T14:16:25.257Z,24.48
2022-11-04T14:21:30.046Z,24.87
2022-11-04T14:26:49.052Z,25.01
2022-11-04T14:31:53.097Z,25.13
2022-11-04T14:37:21.644Z,25.46
2022-11-04T14:42:50.445Z,25.63
2022-11-04T14:47:57.844Z,25.42
2022-11-04T14:53:05.642Z,25.17
2022-11-04T14:58:28.807Z,24.82
2022-11-04T15:04:10.917Z,24.56
2022-11-04T15:09:01.722Z,24.12
2022-11-04T15:14:17.577Z,23.73
2022-11-04T15:19:40.097Z,23.37
2022-11-04T15:24:44.100Z,23.13
2022-11-04T15:30:01.043Z,22.75
2022-11-04T15:35:03.904Z,22.36
2022-11-04T15:40:07.471Z,22.21
2022-11-04T15:45:30.810Z,22.05
2022-11-04T15:50:33.205Z,21.82
2022-11-04T15:55:38.245Z,21.50
2022-11-04T16:00:40.743Z,21.41
2022-11-04T16:05:43.967Z,21.16
2022-11-04T16:10:46.576Z,21.00
2022-11-04T16:15:53.838Z,20.93
2022-11-04T16:20:57.871Z,20.67
2022-11-04T16:26:06.901Z,20.53
2022-11-04T16:31:21.378Z,20.49
2022-11-04T16:36:30.962Z,20.28
2022-11-04T16:41:42.610Z,20.13
2022-11-04T16:46:45.996Z,20.13
2022-11-04T16:51:56.213Z,20.03
2022-11-04T16:57:00.716Z,19.83
2022-11-04T17:02:03.354Z,19.80
2022-11-04T17:07:05.703Z,19.59
2022-11-04T17:12:08.577Z,19.60
2022-11-04T17:22:38.357Z,19.26
2022-11-04T17:27:41.751Z,19.28
2022-11-04T17:32:45.045Z,19.36
2022-11-04T17:37:47.502Z,19.27
2022-11-04T17:43:11.842Z,19.08
2022-11-04T17:48:15.936Z,19.06
2022-11-04T17:53:18.303Z,18.95
2022-11-04T17:58:21.985Z,18.52
2022-11-04T18:03:24.291Z,18.78
2022-11-04T18:08:26.477Z,18.77
2022-11-04T18:13:28.894Z,18.52
2022-11-04T18:18:31.204Z,18.67
2022-11-04T18:23:33.528Z,18.68
2022-11-04T18:28:38.783Z,18.69
2022-11-04T18:33:44.096Z,18.36
2022-11-04T18:38:47.049Z,18.39
2022-11-04T18:43:49.453Z,18.44
2022-11-04T18:48:52.816Z,18.41
2022-11-04T18:53:55.226Z,18.26
2022-11-04T18:58:57.485Z,18.24
2022-11-04T19:04:00.884Z,18.11
2022-11-04T19:09:40.093Z,17.63
2022-11-04T19:14:30.427Z,18.04
2022-11-04T19:19:32.657Z,17.87
2022-11-04T19:24:34.983Z,17.86
2022-11-04T19:29:37.436Z,17.51
2022-11-04T19:34:39.950Z,17.68
2022-11-04T19:39:42.442Z,17.33
2022-11-04T19:44:44.689Z,17.52
2022-11-04T19:49:47.082Z,17.46
2022-11-04T19:54:49.707Z,17.42
2022-11-04T19:59:52.743Z,17.33
2022-11-04T20:04:55.064Z,17.30
2022-11-04T20:09:57.417Z,16.85
2022-11-04T20:14:59.940Z,16.74
2022-11-04T20:20:02.309Z,16.86
2022-11-04T20:25:04.929Z,16.74
2022-11-04T20:30:07.876Z,16.53
2022-11-04T20:35:10.246Z,16.54
2022-11-04T20:40:13.748Z,16.54
2022-11-04T20:45:17.888Z,16.38
2022-11-04T20:50:20.076Z,16.36
2022-11-04T20:55:23.392Z,16.32
2022-11-04T21:00:25.616Z,16.14
2022-11-04T21:05:27.919Z,16.06
2022-11-04T21:10:30.105Z,16.11
2022-11-04T21:15:41.282Z,15.93
2022-11-04T21:20:43.876Z,15.99
2022-11-04T21:25:52.696Z,16.08
2022-11-04T21:30:55.113Z,15.83
2022-11-04T21:36:02.835Z,15.94
2022-11-04T21:41:07.925Z,15.95
2022-11-04T21:46:14.727Z,15.96
2022-11-04T21:51:20.596Z,15.98
2022-11-04T21:56:26.162Z,15.96
2022-11-04T22:01:30.610Z,15.80
2022-11-04T22:06:35.479Z,15.68
2022-11-04T22:11:39.917Z,15.69
2022-11-04T22:16:42.353Z,15.65
2022-11-04T22:21:46.110Z,15.75
2022-11-04T22:26:48.397Z,15.34
2022-11-04T22:31:50.556Z,15.39
2022-11-04T22:36:52.833Z,15.17
2022-11-04T22:41:55.171Z,15.22
2022-11-04T22:46:57.453Z,15.01
2022-11-04T22:51:59.687Z,14.84
2022-11-04T22:57:01.933Z,14.74
2022-11-04T23:02:04.408Z,14.78
2022-11-04T23:07:07.157Z,14.64
2022-11-04T23:12:28.384Z,14.68
2022-11-04T23:17:48.950Z,14.61
2022-11-04T23:23:09.919Z,14.60
2022-11-04T23:28:30.743Z,14.25
2022-11-04T23:33:51.732Z,14.30
2022-11-04T23:38:54.203Z,14.29
2022-11-04T23:43:56.363Z,14.28
2022-11-04T23:49:17.043Z,14.23
2022-11-04T23:54:37.794Z,14.24
2022-11-04T23:59:58.211Z,14.11
